sensor_id;sensor_type;location;lat;lon;timestamp;P1;durP1;ratioP1;P2;durP2;ratioP2
43297;SDS011;28892;55.640;37.532;2023-10-19T00:02:07;4.13;;;3.63;;
43297;SDS011;28892;55.640;37.532;2023-10-19T00:04:33;3.88;;;3.42;;
43297;SDS011;28892;55.640;37.532;2023-10-19T00:07:02;4.07;;;3.65;;
43297;SDS011;28892;55.640;37.532;2023-10-19T00:09:32;3.90;;;3.50;;
43297;SDS011;28892;55.640;37.532;2023-10-19T00:12:05;4.13;;;3.72;;
43297;SDS011;28892;55.640;37.532;2023-10-19T00:14:33;5.28;;;4.00;;
43297;SDS011;28892;55.640;37.532;2023-10-19T00:17:03;4.45;;;3.95;;
43297;SDS011;28892;55.640;37.532;2023-10-19T00:19:34;4.75;;;4.10;;
43297;SDS011;28892;55.640;37.532;2023-10-19T00:22:05;4.90;;;4.50;;
43297;SDS011;28892;55.640;37.532;2023-10-19T00:24:34;3.95;;;3.55;;
43297;SDS011;28892;55.640;37.532;2023-10-19T00:27:01;6.93;;;4.10;;
43297;SDS011;28892;55.640;37.532;2023-10-19T00:29:43;4.70;;;4.20;;
43297;SDS011;28892;55.640;37.532;2023-10-19T00:32:15;4.78;;;4.38;;
43297;SDS011;28892;55.640;37.532;2023-10-19T00:34:43;4.65;;;3.95;;
43297;SDS011;28892;55.640;37.532;2023-10-19T00:37:16;5.18;;;4.30;;
43297;SDS011;28892;55.640;37.532;2023-10-19T00:39:45;4.60;;;4.20;;
43297;SDS011;28892;55.640;37.532;2023-10-19T00:42:19;4.63;;;4.15;;
43297;SDS011;28892;55.640;37.532;2023-10-19T00:44:56;4.25;;;3.85;;
43297;SDS011;28892;55.640;37.532;2023-10-19T00:47:32;4.50;;;4.10;;
43297;SDS011;28892;55.640;37.532;2023-10-19T00:50:06;4.53;;;4.10;;
43297;SDS011;28892;55.640;37.532;2023-10-19T00:52:37;5.15;;;4.30;;
43297;SDS011;28892;55.640;37.532;2023-10-19T00:55:09;5.25;;;4.40;;
43297;SDS011;28892;55.640;37.532;2023-10-19T00:57:40;5.75;;;4.30;;
43297;SDS011;28892;55.640;37.532;2023-10-19T01:00:12;4.70;;;4.18;;
43297;SDS011;28892;55.640;37.532;2023-10-19T01:02:47;4.50;;;4.10;;
43297;SDS011;28892;55.640;37.532;2023-10-19T01:05:17;4.45;;;4.05;;
43297;SDS011;28892;55.640;37.532;2023-10-19T01:07:47;4.57;;;4.18;;
43297;SDS011;28892;55.640;37.532;2023-10-19T01:10:22;4.90;;;4.28;;
43297;SDS011;28892;55.640;37.532;2023-10-19T01:12:51;4.85;;;4.32;;
43297;SDS011;28892;55.640;37.532;2023-10-19T01:15:17;4.45;;;4.05;;
43297;SDS011;28892;55.640;37.532;2023-10-19T01:17:55;4.70;;;4.30;;
43297;SDS011;28892;55.640;37.532;2023-10-19T01:20:26;4.45;;;3.70;;
43297;SDS011;28892;55.640;37.532;2023-10-19T01:22:57;4.53;;;4.13;;
43297;SDS011;28892;55.640;37.532;2023-10-19T01:28:15;4.65;;;4.25;;
43297;SDS011;28892;55.640;37.532;2023-10-19T01:30:45;4.88;;;4.47;;
43297;SDS011;28892;55.640;37.532;2023-10-19T01:33:12;4.88;;;4.47;;
43297;SDS011;28892;55.640;37.532;2023-10-19T01:35:44;5.03;;;4.53;;
43297;SDS011;28892;55.640;37.532;2023-10-19T01:38:29;4.82;;;4.38;;
43297;SDS011;28892;55.640;37.532;2023-10-19T01:40:59;5.00;;;4.50;;
43297;SDS011;28892;55.640;37.532;2023-10-19T01:43:27;4.25;;;3.85;;
43297;SDS011;28892;55.640;37.532;2023-10-19T01:45:56;6.10;;;4.57;;
43297;SDS011;28892;55.640;37.532;2023-10-19T01:48:24;4.70;;;4.20;;
43297;SDS011;28892;55.640;37.532;2023-10-19T01:51:00;5.03;;;4.53;;
43297;SDS011;28892;55.640;37.532;2023-10-19T01:53:31;4.88;;;4.43;;
43297;SDS011;28892;55.640;37.532;2023-10-19T01:56:08;4.63;;;4.22;;
43297;SDS011;28892;55.640;37.532;2023-10-19T01:58:35;5.28;;;4.72;;
43297;SDS011;28892;55.640;37.532;2023-10-19T02:01:03;4.97;;;4.57;;
43297;SDS011;28892;55.640;37.532;2023-10-19T02:03:50;4.47;;;4.10;;
43297;SDS011;28892;55.640;37.532;2023-10-19T02:06:21;4.80;;;4.40;;
43297;SDS011;28892;55.640;37.532;2023-10-19T02:08:58;2.80;;;2.60;;
43297;SDS011;28892;55.640;37.532;2023-10-19T02:11:27;5.85;;;4.00;;
43297;SDS011;28892;55.640;37.532;2023-10-19T02:13:55;5.47;;;4.97;;
43297;SDS011;28892;55.640;37.532;2023-10-19T02:16:26;4.72;;;4.32;;
43297;SDS011;28892;55.640;37.532;2023-10-19T02:18:55;4.63;;;4.22;;
43297;SDS011;28892;55.640;37.532;2023-10-19T02:21:42;4.95;;;4.40;;
43297;SDS011;28892;55.640;37.532;2023-10-19T02:24:08;5.45;;;4.47;;
43297;SDS011;28892;55.640;37.532;2023-10-19T02:26:37;5.40;;;3.88;;
43297;SDS011;28892;55.640;37.532;2023-10-19T02:29:04;4.63;;;4.22;;
43297;SDS011;28892;55.640;37.532;2023-10-19T02:31:34;4.50;;;4.10;;
43297;SDS011;28892;55.640;37.532;2023-10-19T02:34:04;4.50;;;4.10;;
43297;SDS011;28892;55.640;37.532;2023-10-19T02:36:41;4.53;;;4.13;;
43297;SDS011;28892;55.640;37.532;2023-10-19T02:39:09;4.90;;;4.30;;
43297;SDS011;28892;55.640;37.532;2023-10-19T02:41:41;5.00;;;4.60;;
43297;SDS011;28892;55.640;37.532;2023-10-19T02:44:14;5.18;;;4.63;;
43297;SDS011;28892;55.640;37.532;2023-10-19T02:46:44;4.88;;;4.47;;
43297;SDS011;28892;55.640;37.532;2023-10-19T02:49:12;5.00;;;4.60;;
43297;SDS011;28892;55.640;37.532;2023-10-19T02:52:02;4.75;;;4.30;;
43297;SDS011;28892;55.640;37.532;2023-10-19T02:54:30;4.88;;;4.47;;
43297;SDS011;28892;55.640;37.532;2023-10-19T02:56:58;4.35;;;3.83;;
43297;SDS011;28892;55.640;37.532;2023-10-19T02:59:26;4.57;;;4.18;;
43297;SDS011;28892;55.640;37.532;2023-10-19T03:01:55;4.93;;;4.53;;
43297;SDS011;28892;55.640;37.532;2023-10-19T03:04:38;4.18;;;3.85;;
43297;SDS011;28892;55.640;37.532;2023-10-19T03:10:31;4.60;;;4.18;;
43297;SDS011;28892;55.640;37.532;2023-10-19T03:13:12;5.00;;;4.60;;
43297;SDS011;28892;55.640;37.532;2023-10-19T03:15:40;5.35;;;4.72;;
43297;SDS011;28892;55.640;37.532;2023-10-19T03:18:08;5.03;;;4.55;;
43297;SDS011;28892;55.640;37.532;2023-10-19T03:20:40;5.00;;;4.60;;
43297;SDS011;28892;55.640;37.532;2023-10-19T03:23:09;4.45;;;4.05;;
43297;SDS011;28892;55.640;37.532;2023-10-19T03:25:36;5.10;;;4.65;;
43297;SDS011;28892;55.640;37.532;2023-10-19T03:28:20;4.75;;;4.35;;
43297;SDS011;28892;55.640;37.532;2023-10-19T03:30:51;5.25;;;4.55;;
43297;SDS011;28892;55.640;37.532;2023-10-19T03:33:17;5.30;;;4.80;;
43297;SDS011;28892;55.640;37.532;2023-10-19T03:35:43;4.80;;;4.40;;
43297;SDS011;28892;55.640;37.532;2023-10-19T03:38:09;4.85;;;4.45;;
43297;SDS011;28892;55.640;37.532;2023-10-19T03:40:42;4.75;;;4.35;;
43297;SDS011;28892;55.640;37.532;2023-10-19T03:43:19;4.80;;;4.40;;
43297;SDS011;28892;55.640;37.532;2023-10-19T03:45:48;5.03;;;4.63;;
43297;SDS011;28892;55.640;37.532;2023-10-19T03:48:18;4.70;;;4.30;;
43297;SDS011;28892;55.640;37.532;2023-10-19T03:51:00;5.00;;;4.60;;
43297;SDS011;28892;55.640;37.532;2023-10-19T03:53:28;5.60;;;5.10;;
43297;SDS011;28892;55.640;37.532;2023-10-19T03:55:54;5.57;;;5.07;;
43297;SDS011;28892;55.640;37.532;2023-10-19T03:58:20;7.22;;;4.90;;
43297;SDS011;28892;55.640;37.532;2023-10-19T04:00:49;4.82;;;4.43;;
43297;SDS011;28892;55.640;37.532;2023-10-19T04:03:15;5.30;;;4.50;;
43297;SDS011;28892;55.640;37.532;2023-10-19T04:05:50;5.72;;;4.70;;
43297;SDS011;28892;55.640;37.532;2023-10-19T04:08:16;5.22;;;4.72;;
43297;SDS011;28892;55.640;37.532;2023-10-19T04:10:52;5.20;;;4.40;;
43297;SDS011;28892;55.640;37.532;2023-10-19T04:13:34;5.10;;;4.60;;
43297;SDS011;28892;55.640;37.532;2023-10-19T04:16:03;5.20;;;4.70;;
43297;SDS011;28892;55.640;37.532;2023-10-19T04:18:31;5.03;;;4.45;;
43297;SDS011;28892;55.640;37.532;2023-10-19T04:21:00;5.03;;;4.50;;
43297;SDS011;28892;55.640;37.532;2023-10-19T04:23:27;6.43;;;4.88;;
43297;SDS011;28892;55.640;37.532;2023-10-19T04:25:54;9.52;;;4.60;;
43297;SDS011;28892;55.640;37.532;2023-10-19T04:28:23;5.28;;;4.82;;
43297;SDS011;28892;55.640;37.532;2023-10-19T04:30:56;4.80;;;4.40;;
43297;SDS011;28892;55.640;37.532;2023-10-19T04:33:28;4.63;;;4.20;;
43297;SDS011;28892;55.640;37.532;2023-10-19T04:35:56;4.45;;;4.13;;
43297;SDS011;28892;55.640;37.532;2023-10-19T04:38:31;5.07;;;4.68;;
43297;SDS011;28892;55.640;37.532;2023-10-19T04:41:07;21.77;;;5.72;;
43297;SDS011;28892;55.640;37.532;2023-10-19T04:43:42;5.00;;;4.60;;
43297;SDS011;28892;55.640;37.532;2023-10-19T04:46:16;4.53;;;4.13;;
43297;SDS011;28892;55.640;37.532;2023-10-19T04:48:44;5.13;;;4.30;;
43297;SDS011;28892;55.640;37.532;2023-10-19T04:51:10;5.25;;;4.80;;
43297;SDS011;28892;55.640;37.532;2023-10-19T04:53:41;5.22;;;4.75;;
43297;SDS011;28892;55.640;37.532;2023-10-19T04:56:08;5.38;;;4.57;;
43297;SDS011;28892;55.640;37.532;2023-10-19T04:58:34;5.10;;;4.60;;
43297;SDS011;28892;55.640;37.532;2023-10-19T05:01:01;5.25;;;4.75;;
43297;SDS011;28892;55.640;37.532;2023-10-19T05:03:29;4.40;;;4.00;;
43297;SDS011;28892;55.640;37.532;2023-10-19T05:05:58;4.80;;;4.40;;
43297;SDS011;28892;55.640;37.532;2023-10-19T05:08:24;4.97;;;4.47;;
43297;SDS011;28892;55.640;37.532;2023-10-19T05:10:51;5.20;;;4.70;;
43297;SDS011;28892;55.640;37.532;2023-10-19T05:13:20;5.20;;;4.70;;
43297;SDS011;28892;55.640;37.532;2023-10-19T05:15:50;5.20;;;4.70;;
43297;SDS011;28892;55.640;37.532;2023-10-19T05:18:16;5.20;;;4.80;;
43297;SDS011;28892;55.640;37.532;2023-10-19T05:20:42;4.90;;;4.40;;
43297;SDS011;28892;55.640;37.532;2023-10-19T05:23:09;5.50;;;5.00;;
43297;SDS011;28892;55.640;37.532;2023-10-19T05:25:38;5.20;;;4.72;;
43297;SDS011;28892;55.640;37.532;2023-10-19T05:28:07;5.47;;;4.97;;
43297;SDS011;28892;55.640;37.532;2023-10-19T05:30:50;5.13;;;4.63;;
43297;SDS011;28892;55.640;37.532;2023-10-19T05:33:16;5.05;;;4.57;;
43297;SDS011;28892;55.640;37.532;2023-10-19T05:35:42;5.03;;;4.53;;
43297;SDS011;28892;55.640;37.532;2023-10-19T05:38:08;5.13;;;4.65;;
43297;SDS011;28892;55.640;37.532;2023-10-19T05:40:39;5.20;;;4.70;;
43297;SDS011;28892;55.640;37.532;2023-10-19T05:43:08;4.80;;;4.40;;
43297;SDS011;28892;55.640;37.532;2023-10-19T05:45:34;4.50;;;4.10;;
43297;SDS011;28892;55.640;37.532;2023-10-19T05:48:02;5.47;;;4.40;;
43297;SDS011;28892;55.640;37.532;2023-10-19T05:50:32;4.90;;;4.50;;
43297;SDS011;28892;55.640;37.532;2023-10-19T05:53:02;4.43;;;4.03;;
43297;SDS011;28892;55.640;37.532;2023-10-19T05:55:29;4.22;;;3.92;;
43297;SDS011;28892;55.640;37.532;2023-10-19T05:57:55;4.55;;;4.15;;
43297;SDS011;28892;55.640;37.532;2023-10-19T06:00:29;4.90;;;4.40;;
43297;SDS011;28892;55.640;37.532;2023-10-19T06:02:57;4.28;;;3.97;;
43297;SDS011;28892;55.640;37.532;2023-10-19T06:05:27;3.80;;;3.50;;
43297;SDS011;28892;55.640;37.532;2023-10-19T06:07:55;4.30;;;3.90;;
43297;SDS011;28892;55.640;37.532;2023-10-19T06:10:22;3.67;;;3.38;;
43297;SDS011;28892;55.640;37.532;2023-10-19T06:13:01;6.65;;;3.40;;
43297;SDS011;28892;55.640;37.532;2023-10-19T06:15:52;3.53;;;3.22;;
43297;SDS011;28892;55.640;37.532;2023-10-19T06:18:20;3.53;;;3.22;;
43297;SDS011;28892;55.640;37.532;2023-10-19T06:20:48;3.47;;;3.17;;
43297;SDS011;28892;55.640;37.532;2023-10-19T06:23:29;3.88;;;3.47;;
43297;SDS011;28892;55.640;37.532;2023-10-19T06:26:00;3.20;;;2.88;;
43297;SDS011;28892;55.640;37.532;2023-10-19T06:28:36;3.28;;;2.90;;
43297;SDS011;28892;55.640;37.532;2023-10-19T06:31:07;3.30;;;3.00;;
43297;SDS011;28892;55.640;37.532;2023-10-19T06:33:36;3.17;;;2.85;;
43297;SDS011;28892;55.640;37.532;2023-10-19T06:36:07;3.42;;;3.13;;
43297;SDS011;28892;55.640;37.532;2023-10-19T06:38:36;3.58;;;3.20;;
43297;SDS011;28892;55.640;37.532;2023-10-19T06:41:20;3.83;;;3.38;;
43297;SDS011;28892;55.640;37.532;2023-10-19T06:43:52;3.78;;;3.40;;
43297;SDS011;28892;55.640;37.532;2023-10-19T06:46:18;5.05;;;3.90;;
43297;SDS011;28892;55.640;37.532;2023-10-19T06:48:47;3.83;;;3.47;;
43297;SDS011;28892;55.640;37.532;2023-10-19T06:51:13;4.75;;;3.65;;
43297;SDS011;28892;55.640;37.532;2023-10-19T06:53:42;5.03;;;3.65;;
43297;SDS011;28892;55.640;37.532;2023-10-19T06:56:09;4.53;;;3.80;;
43297;SDS011;28892;55.640;37.532;2023-10-19T06:58:36;4.30;;;3.08;;
43297;SDS011;28892;55.640;37.532;2023-10-19T07:01:02;3.85;;;3.15;;
43297;SDS011;28892;55.640;37.532;2023-10-19T07:03:33;4.82;;;3.50;;
43297;SDS011;28892;55.640;37.532;2023-10-19T07:05:59;3.35;;;3.03;;
43297;SDS011;28892;55.640;37.532;2023-10-19T07:08:27;3.67;;;3.35;;
43297;SDS011;28892;55.640;37.532;2023-10-19T07:10:54;3.80;;;3.38;;
43297;SDS011;28892;55.640;37.532;2023-10-19T07:13:20;3.13;;;2.80;;
43297;SDS011;28892;55.640;37.532;2023-10-19T07:15:47;3.25;;;2.95;;
43297;SDS011;28892;55.640;37.532;2023-10-19T07:18:17;3.22;;;2.92;;
43297;SDS011;28892;55.640;37.532;2023-10-19T07:20:43;3.15;;;2.90;;
43297;SDS011;28892;55.640;37.532;2023-10-19T07:23:14;3.75;;;3.00;;
43297;SDS011;28892;55.640;37.532;2023-10-19T07:25:52;3.00;;;2.55;;
43297;SDS011;28892;55.640;37.532;2023-10-19T07:28:22;3.30;;;3.00;;
43297;SDS011;28892;55.640;37.532;2023-10-19T07:30:57;3.38;;;3.08;;
43297;SDS011;28892;55.640;37.532;2023-10-19T07:33:25;3.30;;;3.00;;
43297;SDS011;28892;55.640;37.532;2023-10-19T07:35:52;3.72;;;3.30;;
43297;SDS011;28892;55.640;37.532;2023-10-19T07:38:23;3.60;;;3.30;;
43297;SDS011;28892;55.640;37.532;2023-10-19T07:40:49;3.53;;;3.22;;
43297;SDS011;28892;55.640;37.532;2023-10-19T07:43:18;4.90;;;3.30;;
43297;SDS011;28892;55.640;37.532;2023-10-19T07:45:46;4.03;;;3.25;;
43297;SDS011;28892;55.640;37.532;2023-10-19T07:48:13;4.85;;;3.30;;
43297;SDS011;28892;55.640;37.532;2023-10-19T07:50:40;3.42;;;3.00;;
43297;SDS011;28892;55.640;37.532;2023-10-19T07:53:08;3.40;;;2.80;;
43297;SDS011;28892;55.640;37.532;2023-10-19T07:55:37;3.83;;;3.08;;
43297;SDS011;28892;55.640;37.532;2023-10-19T07:58:04;3.55;;;3.20;;
43297;SDS011;28892;55.640;37.532;2023-10-19T08:00:32;3.25;;;2.95;;
43297;SDS011;28892;55.640;37.532;2023-10-19T08:03:02;3.47;;;3.05;;
43297;SDS011;28892;55.640;37.532;2023-10-19T08:05:30;3.28;;;2.75;;
43297;SDS011;28892;55.640;37.532;2023-10-19T08:07:56;4.30;;;3.10;;
43297;SDS011;28892;55.640;37.532;2023-10-19T08:10:24;3.28;;;2.97;;
43297;SDS011;28892;55.640;37.532;2023-10-19T08:12:53;3.90;;;3.50;;
43297;SDS011;28892;55.640;37.532;2023-10-19T08:15:20;3.55;;;3.25;;
43297;SDS011;28892;55.640;37.532;2023-10-19T08:17:48;3.50;;;3.20;;
43297;SDS011;28892;55.640;37.532;2023-10-19T08:20:16;3.50;;;3.20;;
43297;SDS011;28892;55.640;37.532;2023-10-19T08:22:43;4.15;;;2.80;;
43297;SDS011;28892;55.640;37.532;2023-10-19T08:25:12;3.50;;;3.08;;
43297;SDS011;28892;55.640;37.532;2023-10-19T08:27:46;3.40;;;3.10;;
43297;SDS011;28892;55.640;37.532;2023-10-19T08:30:23;3.50;;;3.17;;
43297;SDS011;28892;55.640;37.532;2023-10-19T08:32:51;4.05;;;3.17;;
43297;SDS011;28892;55.640;37.532;2023-10-19T08:35:19;5.13;;;3.20;;
43297;SDS011;28892;55.640;37.532;2023-10-19T08:37:52;3.13;;;2.83;;
43297;SDS011;28892;55.640;37.532;2023-10-19T08:40:19;3.33;;;3.03;;
43297;SDS011;28892;55.640;37.532;2023-10-19T08:42:47;3.40;;;3.10;;
43297;SDS011;28892;55.640;37.532;2023-10-19T08:45:16;3.53;;;3.10;;
43297;SDS011;28892;55.640;37.532;2023-10-19T08:50:28;3.28;;;2.92;;
43297;SDS011;28892;55.640;37.532;2023-10-19T08:53:00;3.65;;;2.63;;
43297;SDS011;28892;55.640;37.532;2023-10-19T08:55:28;4.20;;;2.88;;
43297;SDS011;28892;55.640;37.532;2023-10-19T08:57:56;3.58;;;2.80;;
43297;SDS011;28892;55.640;37.532;2023-10-19T09:00:25;3.03;;;2.72;;
43297;SDS011;28892;55.640;37.532;2023-10-19T09:02:52;4.05;;;2.80;;
43297;SDS011;28892;55.640;37.532;2023-10-19T09:05:19;4.40;;;2.92;;
43297;SDS011;28892;55.640;37.532;2023-10-19T09:07:52;3.40;;;3.10;;
43297;SDS011;28892;55.640;37.532;2023-10-19T09:10:22;3.33;;;3.00;;
43297;SDS011;28892;55.640;37.532;2023-10-19T09:13:05;4.35;;;3.92;;
43297;SDS011;28892;55.640;37.532;2023-10-19T09:18:20;3.08;;;2.78;;
43297;SDS011;28892;55.640;37.532;2023-10-19T09:20:51;2.90;;;2.70;;
43297;SDS011;28892;55.640;37.532;2023-10-19T09:23:19;3.15;;;2.85;;
43297;SDS011;28892;55.640;37.532;2023-10-19T09:25:49;3.75;;;3.08;;
43297;SDS011;28892;55.640;37.532;2023-10-19T09:28:19;5.72;;;3.03;;
43297;SDS011;28892;55.640;37.532;2023-10-19T09:30:46;4.20;;;3.35;;
43297;SDS011;28892;55.640;37.532;2023-10-19T09:33:15;3.85;;;3.20;;
43297;SDS011;28892;55.640;37.532;2023-10-19T09:35:47;3.70;;;3.03;;
43297;SDS011;28892;55.640;37.532;2023-10-19T09:38:17;3.95;;;3.25;;
43297;SDS011;28892;55.640;37.532;2023-10-19T09:43:15;3.97;;;2.97;;
43297;SDS011;28892;55.640;37.532;2023-10-19T09:45:46;3.03;;;2.83;;
43297;SDS011;28892;55.640;37.532;2023-10-19T09:48:19;2.97;;;2.78;;
43297;SDS011;28892;55.640;37.532;2023-10-19T09:50:53;2.83;;;2.53;;
43297;SDS011;28892;55.640;37.532;2023-10-19T09:53:30;3.22;;;2.92;;
43297;SDS011;28892;55.640;37.532;2023-10-19T09:55:58;3.45;;;3.00;;
43297;SDS011;28892;55.640;37.532;2023-10-19T09:58:36;3.63;;;2.90;;
43297;SDS011;28892;55.640;37.532;2023-10-19T10:01:11;4.18;;;3.05;;
43297;SDS011;28892;55.640;37.532;2023-10-19T10:03:52;3.90;;;3.30;;
43297;SDS011;28892;55.640;37.532;2023-10-19T10:06:29;3.15;;;2.85;;
43297;SDS011;28892;55.640;37.532;2023-10-19T10:09:19;3.38;;;3.08;;
43297;SDS011;28892;55.640;37.532;2023-10-19T10:12:01;11.13;;;4.50;;
43297;SDS011;28892;55.640;37.532;2023-10-19T10:15:06;3.60;;;3.30;;
43297;SDS011;28892;55.640;37.532;2023-10-19T10:17:37;5.18;;;3.10;;
43297;SDS011;28892;55.640;37.532;2023-10-19T10:22:43;3.00;;;2.50;;
43297;SDS011;28892;55.640;37.532;2023-10-19T10:25:28;4.43;;;2.92;;
43297;SDS011;28892;55.640;37.532;2023-10-19T10:27:55;4.20;;;2.05;;
43297;SDS011;28892;55.640;37.532;2023-10-19T10:30:21;6.28;;;4.28;;
43297;SDS011;28892;55.640;37.532;2023-10-19T10:32:51;2.25;;;2.05;;
43297;SDS011;28892;55.640;37.532;2023-10-19T10:38:24;3.03;;;2.10;;
43297;SDS011;28892;55.640;37.532;2023-10-19T10:41:05;2.30;;;1.90;;
43297;SDS011;28892;55.640;37.532;2023-10-19T10:43:59;1.85;;;1.52;;
43297;SDS011;28892;55.640;37.532;2023-10-19T10:46:40;1.52;;;1.30;;
43297;SDS011;28892;55.640;37.532;2023-10-19T10:49:38;1.77;;;1.50;;
43297;SDS011;28892;55.640;37.532;2023-10-19T10:57:22;3.22;;;2.70;;
43297;SDS011;28892;55.640;37.532;2023-10-19T11:00:05;1.80;;;1.63;;
43297;SDS011;28892;55.640;37.532;2023-10-19T11:02:46;2.08;;;1.80;;
43297;SDS011;28892;55.640;37.532;2023-10-19T11:05:26;1.95;;;1.77;;
43297;SDS011;28892;55.640;37.532;2023-10-19T11:08:12;1.52;;;1.40;;
43297;SDS011;28892;55.640;37.532;2023-10-19T11:10:55;1.90;;;1.50;;
43297;SDS011;28892;55.640;37.532;2023-10-19T11:13:32;2.08;;;1.45;;
43297;SDS011;28892;55.640;37.532;2023-10-19T11:16:02;1.60;;;1.40;;
43297;SDS011;28892;55.640;37.532;2023-10-19T11:18:32;1.60;;;1.50;;
43297;SDS011;28892;55.640;37.532;2023-10-19T11:21:02;1.92;;;1.67;;
43297;SDS011;28892;55.640;37.532;2023-10-19T11:26:03;2.83;;;2.03;;
43297;SDS011;28892;55.640;37.532;2023-10-19T11:28:30;2.00;;;1.77;;
43297;SDS011;28892;55.640;37.532;2023-10-19T11:34:28;3.05;;;2.03;;
43297;SDS011;28892;55.640;37.532;2023-10-19T11:36:56;2.83;;;2.10;;
43297;SDS011;28892;55.640;37.532;2023-10-19T11:39:23;2.33;;;1.90;;
43297;SDS011;28892;55.640;37.532;2023-10-19T11:41:59;2.42;;;1.50;;
43297;SDS011;28892;55.640;37.532;2023-10-19T11:44:26;1.45;;;1.35;;
43297;SDS011;28892;55.640;37.532;2023-10-19T11:46:52;3.10;;;1.52;;
43297;SDS011;28892;55.640;37.532;2023-10-19T11:49:18;2.53;;;1.58;;
43297;SDS011;28892;55.640;37.532;2023-10-19T11:51:45;1.65;;;1.30;;
43297;SDS011;28892;55.640;37.532;2023-10-19T11:54:12;2.00;;;1.50;;
43297;SDS011;28892;55.640;37.532;2023-10-19T11:56:38;2.38;;;1.75;;
43297;SDS011;28892;55.640;37.532;2023-10-19T11:59:04;2.28;;;1.75;;
43297;SDS011;28892;55.640;37.532;2023-10-19T12:01:30;2.08;;;1.60;;
43297;SDS011;28892;55.640;37.532;2023-10-19T12:03:56;2.97;;;1.50;;
43297;SDS011;28892;55.640;37.532;2023-10-19T12:06:22;1.70;;;1.60;;
43297;SDS011;28892;55.640;37.532;2023-10-19T12:08:49;3.38;;;1.83;;
43297;SDS011;28892;55.640;37.532;2023-10-19T12:11:15;1.70;;;1.58;;
43297;SDS011;28892;55.640;37.532;2023-10-19T12:13:42;1.83;;;1.73;;
43297;SDS011;28892;55.640;37.532;2023-10-19T12:16:13;1.85;;;1.45;;
43297;SDS011;28892;55.640;37.532;2023-10-19T12:18:42;3.55;;;1.73;;
43297;SDS011;28892;55.640;37.532;2023-10-19T12:21:09;2.35;;;1.80;;
43297;SDS011;28892;55.640;37.532;2023-10-19T12:23:41;2.10;;;1.90;;
43297;SDS011;28892;55.640;37.532;2023-10-19T12:26:09;2.08;;;1.88;;
43297;SDS011;28892;55.640;37.532;2023-10-19T12:28:38;1.50;;;1.40;;
43297;SDS011;28892;55.640;37.532;2023-10-19T12:31:27;1.70;;;1.60;;
43297;SDS011;28892;55.640;37.532;2023-10-19T12:33:56;1.70;;;1.60;;
43297;SDS011;28892;55.640;37.532;2023-10-19T12:36:22;5.72;;;1.85;;
43297;SDS011;28892;55.640;37.532;2023-10-19T12:38:55;2.08;;;1.83;;
43297;SDS011;28892;55.640;37.532;2023-10-19T12:41:21;2.08;;;1.58;;
43297;SDS011;28892;55.640;37.532;2023-10-19T12:43:50;3.42;;;1.50;;
43297;SDS011;28892;55.640;37.532;2023-10-19T12:46:18;1.45;;;1.35;;
43297;SDS011;28892;55.640;37.532;2023-10-19T12:48:45;1.42;;;1.30;;
43297;SDS011;28892;55.640;37.532;2023-10-19T12:51:13;2.38;;;1.63;;
43297;SDS011;28892;55.640;37.532;2023-10-19T12:53:41;2.95;;;1.67;;
43297;SDS011;28892;55.640;37.532;2023-10-19T12:56:07;3.67;;;1.60;;
43297;SDS011;28892;55.640;37.532;2023-10-19T12:58:37;1.90;;;1.70;;
43297;SDS011;28892;55.640;37.532;2023-10-19T13:01:03;2.42;;;1.90;;
43297;SDS011;28892;55.640;37.532;2023-10-19T13:03:30;2.83;;;2.10;;
43297;SDS011;28892;55.640;37.532;2023-10-19T13:05:58;2.47;;;2.05;;
43297;SDS011;28892;55.640;37.532;2023-10-19T13:08:25;2.60;;;2.05;;
43297;SDS011;28892;55.640;37.532;2023-10-19T13:10:58;4.53;;;2.38;;
43297;SDS011;28892;55.640;37.532;2023-10-19T13:13:28;3.33;;;2.30;;
43297;SDS011;28892;55.640;37.532;2023-10-19T13:15:57;2.95;;;2.40;;
43297;SDS011;28892;55.640;37.532;2023-10-19T13:18:23;4.45;;;2.47;;
43297;SDS011;28892;55.640;37.532;2023-10-19T13:20:55;3.45;;;2.08;;
43297;SDS011;28892;55.640;37.532;2023-10-19T13:23:22;3.28;;;1.92;;
43297;SDS011;28892;55.640;37.532;2023-10-19T13:25:49;2.60;;;2.40;;
43297;SDS011;28892;55.640;37.532;2023-10-19T13:28:16;3.03;;;2.10;;
43297;SDS011;28892;55.640;37.532;2023-10-19T13:30:54;3.55;;;2.30;;
43297;SDS011;28892;55.640;37.532;2023-10-19T13:33:54;2.33;;;1.90;;
43297;SDS011;28892;55.640;37.532;2023-10-19T13:36:32;2.72;;;1.90;;
43297;SDS011;28892;55.640;37.532;2023-10-19T13:39:03;2.25;;;1.98;;
43297;SDS011;28892;55.640;37.532;2023-10-19T13:41:31;2.38;;;2.10;;
43297;SDS011;28892;55.640;37.532;2023-10-19T13:44:22;6.38;;;2.38;;
43297;SDS011;28892;55.640;37.532;2023-10-19T13:46:49;3.50;;;2.33;;
43297;SDS011;28892;55.640;37.532;2023-10-19T13:49:19;5.28;;;2.42;;
43297;SDS011;28892;55.640;37.532;2023-10-19T13:52:01;4.53;;;2.80;;
43297;SDS011;28892;55.640;37.532;2023-10-19T13:54:41;7.13;;;5.65;;
43297;SDS011;28892;55.640;37.532;2023-10-19T13:57:07;3.42;;;2.40;;
43297;SDS011;28892;55.640;37.532;2023-10-19T13:59:33;2.97;;;2.50;;
43297;SDS011;28892;55.640;37.532;2023-10-19T14:02:02;3.08;;;2.35;;
43297;SDS011;28892;55.640;37.532;2023-10-19T14:04:29;3.65;;;2.60;;
43297;SDS011;28892;55.640;37.532;2023-10-19T14:06:55;3.42;;;2.47;;
43297;SDS011;28892;55.640;37.532;2023-10-19T14:09:26;3.20;;;2.60;;
43297;SDS011;28892;55.640;37.532;2023-10-19T14:11:53;4.00;;;2.90;;
43297;SDS011;28892;55.640;37.532;2023-10-19T14:14:19;6.43;;;3.42;;
43297;SDS011;28892;55.640;37.532;2023-10-19T14:16:45;3.60;;;2.83;;
43297;SDS011;28892;55.640;37.532;2023-10-19T14:19:11;4.45;;;3.05;;
43297;SDS011;28892;55.640;37.532;2023-10-19T14:21:37;4.75;;;3.13;;
43297;SDS011;28892;55.640;37.532;2023-10-19T14:24:06;3.33;;;2.88;;
43297;SDS011;28892;55.640;37.532;2023-10-19T14:26:34;4.40;;;2.95;;
43297;SDS011;28892;55.640;37.532;2023-10-19T14:29:02;3.45;;;2.75;;
43297;SDS011;28892;55.640;37.532;2023-10-19T14:31:30;4.30;;;2.83;;
43297;SDS011;28892;55.640;37.532;2023-10-19T14:33:57;4.45;;;2.80;;
43297;SDS011;28892;55.640;37.532;2023-10-19T14:36:24;3.08;;;2.47;;
43297;SDS011;28892;55.640;37.532;2023-10-19T14:38:50;3.30;;;2.80;;
43297;SDS011;28892;55.640;37.532;2023-10-19T14:41:18;4.03;;;2.47;;
43297;SDS011;28892;55.640;37.532;2023-10-19T14:43:48;4.38;;;2.90;;
43297;SDS011;28892;55.640;37.532;2023-10-19T14:46:14;4.45;;;2.70;;
43297;SDS011;28892;55.640;37.532;2023-10-19T14:48:43;4.53;;;3.03;;
43297;SDS011;28892;55.640;37.532;2023-10-19T14:51:17;4.85;;;2.67;;
43297;SDS011;28892;55.640;37.532;2023-10-19T14:53:44;3.55;;;2.47;;
43297;SDS011;28892;55.640;37.532;2023-10-19T14:56:10;3.47;;;2.38;;
43297;SDS011;28892;55.640;37.532;2023-10-19T14:58:40;3.00;;;2.50;;
43297;SDS011;28892;55.640;37.532;2023-10-19T15:01:12;5.35;;;3.05;;
43297;SDS011;28892;55.640;37.532;2023-10-19T15:03:43;4.03;;;2.42;;
43297;SDS011;28892;55.640;37.532;2023-10-19T15:06:09;5.43;;;2.80;;
43297;SDS011;28892;55.640;37.532;2023-10-19T15:08:41;3.60;;;2.67;;
43297;SDS011;28892;55.640;37.532;2023-10-19T15:13:53;6.30;;;3.70;;
43297;SDS011;28892;55.640;37.532;2023-10-19T15:16:20;4.55;;;3.08;;
43297;SDS011;28892;55.640;37.532;2023-10-19T15:18:49;3.78;;;2.80;;
43297;SDS011;28892;55.640;37.532;2023-10-19T15:21:15;3.60;;;2.88;;
43297;SDS011;28892;55.640;37.532;2023-10-19T15:23:42;3.72;;;3.00;;
43297;SDS011;28892;55.640;37.532;2023-10-19T15:26:09;4.90;;;2.97;;
43297;SDS011;28892;55.640;37.532;2023-10-19T15:28:35;3.90;;;2.70;;